sensor_id;sensor_type;location;lat;lon;timestamp;P1;durP1;ratioP1;P2;durP2;ratioP2
13171;SDS011;6651;53.200;10.432;2024-02-23T00:00:50;1.80;;;1.20;;
13171;SDS011;6651;53.200;10.432;2024-02-23T00:03:16;3.03;;;1.42;;
13171;SDS011;6651;53.200;10.432;2024-02-23T00:05:42;4.70;;;1.70;;
13171;SDS011;6651;53.200;10.432;2024-02-23T00:08:08;3.20;;;1.50;;
13171;SDS011;6651;53.200;10.432;2024-02-23T00:10:34;2.03;;;1.50;;
13171;SDS011;6651;53.200;10.432;2024-02-23T00:13:00;2.80;;;1.58;;
13171;SDS011;6651;53.200;10.432;2024-02-23T00:15:27;5.38;;;1.20;;
13171;SDS011;6651;53.200;10.432;2024-02-23T00:17:53;3.75;;;1.48;;
13171;SDS011;6651;53.200;10.432;2024-02-23T00:20:19;1.88;;;1.40;;
13171;SDS011;6651;53.200;10.432;2024-02-23T00:22:45;2.53;;;1.30;;
13171;SDS011;6651;53.200;10.432;2024-02-23T00:25:11;3.35;;;1.67;;
13171;SDS011;6651;53.200;10.432;2024-02-23T00:27:36;1.40;;;1.13;;
13171;SDS011;6651;53.200;10.432;2024-02-23T00:30:04;2.15;;;1.40;;
13171;SDS011;6651;53.200;10.432;2024-02-23T00:32:30;1.20;;;1.10;;
13171;SDS011;6651;53.200;10.432;2024-02-23T00:34:57;2.05;;;1.38;;
13171;SDS011;6651;53.200;10.432;2024-02-23T00:37:23;3.92;;;1.70;;
13171;SDS011;6651;53.200;10.432;2024-02-23T00:39:49;2.35;;;1.30;;
13171;SDS011;6651;53.200;10.432;2024-02-23T00:42:15;3.13;;;1.30;;
13171;SDS011;6651;53.200;10.432;2024-02-23T00:44:41;2.10;;;1.15;;
13171;SDS011;6651;53.200;10.432;2024-02-23T00:47:07;2.53;;;1.30;;
13171;SDS011;6651;53.200;10.432;2024-02-23T00:49:34;3.28;;;1.30;;
13171;SDS011;6651;53.200;10.432;2024-02-23T00:52:00;2.83;;;1.20;;
13171;SDS011;6651;53.200;10.432;2024-02-23T00:54:26;4.30;;;1.10;;
13171;SDS011;6651;53.200;10.432;2024-02-23T00:56:52;1.67;;;1.00;;
13171;SDS011;6651;53.200;10.432;2024-02-23T00:59:18;2.00;;;1.30;;
13171;SDS011;6651;53.200;10.432;2024-02-23T01:01:44;4.07;;;1.35;;
13171;SDS011;6651;53.200;10.432;2024-02-23T01:04:10;3.60;;;1.20;;
13171;SDS011;6651;53.200;10.432;2024-02-23T01:06:36;1.85;;;1.15;;
13171;SDS011;6651;53.200;10.432;2024-02-23T01:09:02;4.18;;;1.15;;
13171;SDS011;6651;53.200;10.432;2024-02-23T01:11:29;3.30;;;1.27;;
13171;SDS011;6651;53.200;10.432;2024-02-23T01:13:55;2.70;;;1.17;;
13171;SDS011;6651;53.200;10.432;2024-02-23T01:16:21;2.67;;;1.20;;
13171;SDS011;6651;53.200;10.432;2024-02-23T01:18:48;2.63;;;1.27;;
13171;SDS011;6651;53.200;10.432;2024-02-23T01:21:14;4.50;;;1.23;;
13171;SDS011;6651;53.200;10.432;2024-02-23T01:23:40;3.88;;;1.50;;
13171;SDS011;6651;53.200;10.432;2024-02-23T01:26:06;2.50;;;1.48;;
13171;SDS011;6651;53.200;10.432;2024-02-23T01:28:32;3.10;;;1.50;;
13171;SDS011;6651;53.200;10.432;2024-02-23T01:30:58;2.35;;;1.30;;
13171;SDS011;6651;53.200;10.432;2024-02-23T01:33:24;3.15;;;1.55;;
13171;SDS011;6651;53.200;10.432;2024-02-23T01:35:50;3.60;;;1.40;;
13171;SDS011;6651;53.200;10.432;2024-02-23T01:38:16;3.50;;;1.45;;
13171;SDS011;6651;53.200;10.432;2024-02-23T01:40:46;3.17;;;1.60;;
13171;SDS011;6651;53.200;10.432;2024-02-23T01:43:12;4.50;;;1.65;;
13171;SDS011;6651;53.200;10.432;2024-02-23T01:45:38;3.47;;;1.45;;
13171;SDS011;6651;53.200;10.432;2024-02-23T01:48:04;4.07;;;1.67;;
13171;SDS011;6651;53.200;10.432;2024-02-23T01:50:31;6.45;;;1.70;;
13171;SDS011;6651;53.200;10.432;2024-02-23T01:52:59;2.78;;;1.00;;
13171;SDS011;6651;53.200;10.432;2024-02-23T01:55:26;2.22;;;1.20;;
13171;SDS011;6651;53.200;10.432;2024-02-23T01:57:52;1.58;;;0.70;;
13171;SDS011;6651;53.200;10.432;2024-02-23T02:00:19;2.47;;;1.00;;
13171;SDS011;6651;53.200;10.432;2024-02-23T02:02:47;0.55;;;0.50;;
13171;SDS011;6651;53.200;10.432;2024-02-23T02:05:14;0.50;;;0.50;;
13171;SDS011;6651;53.200;10.432;2024-02-23T02:07:43;1.83;;;1.10;;
13171;SDS011;6651;53.200;10.432;2024-02-23T02:10:09;0.85;;;0.60;;
13171;SDS011;6651;53.200;10.432;2024-02-23T02:12:35;1.10;;;0.70;;
13171;SDS011;6651;53.200;10.432;2024-02-23T02:15:03;1.20;;;0.60;;
13171;SDS011;6651;53.200;10.432;2024-02-23T02:17:29;1.42;;;1.15;;
13171;SDS011;6651;53.200;10.432;2024-02-23T02:19:57;0.70;;;0.55;;
13171;SDS011;6651;53.200;10.432;2024-02-23T02:22:25;0.77;;;0.77;;
13171;SDS011;6651;53.200;10.432;2024-02-23T02:24:51;0.55;;;0.43;;
13171;SDS011;6651;53.200;10.432;2024-02-23T02:27:17;1.63;;;0.80;;
13171;SDS011;6651;53.200;10.432;2024-02-23T02:29:43;0.82;;;0.60;;
13171;SDS011;6651;53.200;10.432;2024-02-23T02:32:08;0.40;;;0.40;;
13171;SDS011;6651;53.200;10.432;2024-02-23T02:34:35;0.63;;;0.40;;
13171;SDS011;6651;53.200;10.432;2024-02-23T02:37:01;0.70;;;0.60;;
13171;SDS011;6651;53.200;10.432;2024-02-23T02:39:27;0.60;;;0.60;;
13171;SDS011;6651;53.200;10.432;2024-02-23T02:41:53;0.80;;;0.50;;
13171;SDS011;6651;53.200;10.432;2024-02-23T02:44:19;1.15;;;0.65;;
13171;SDS011;6651;53.200;10.432;2024-02-23T02:46:45;0.50;;;0.50;;
13171;SDS011;6651;53.200;10.432;2024-02-23T02:49:12;0.38;;;0.38;;
13171;SDS011;6651;53.200;10.432;2024-02-23T02:51:38;0.68;;;0.68;;
13171;SDS011;6651;53.200;10.432;2024-02-23T02:54:04;0.65;;;0.50;;
13171;SDS011;6651;53.200;10.432;2024-02-23T02:56:30;0.75;;;0.60;;
13171;SDS011;6651;53.200;10.432;2024-02-23T02:58:56;0.43;;;0.43;;
13171;SDS011;6651;53.200;10.432;2024-02-23T03:01:22;0.95;;;0.50;;
13171;SDS011;6651;53.200;10.432;2024-02-23T03:03:48;0.68;;;0.38;;
13171;SDS011;6651;53.200;10.432;2024-02-23T03:06:14;1.08;;;0.38;;
13171;SDS011;6651;53.200;10.432;2024-02-23T03:08:43;0.93;;;0.20;;
13171;SDS011;6651;53.200;10.432;2024-02-23T03:11:09;0.43;;;0.20;;
13171;SDS011;6651;53.200;10.432;2024-02-23T03:13:37;0.00;;;0.00;;
13171;SDS011;6651;53.200;10.432;2024-02-23T03:16:03;0.10;;;0.10;;
13171;SDS011;6651;53.200;10.432;2024-02-23T03:18:29;0.10;;;0.10;;
13171;SDS011;6651;53.200;10.432;2024-02-23T03:20:55;0.30;;;0.20;;
13171;SDS011;6651;53.200;10.432;2024-02-23T03:23:21;0.10;;;0.10;;
13171;SDS011;6651;53.200;10.432;2024-02-23T03:25:48;0.45;;;0.20;;
13171;SDS011;6651;53.200;10.432;2024-02-23T03:28:14;0.47;;;0.38;;
13171;SDS011;6651;53.200;10.432;2024-02-23T03:30:40;1.10;;;0.38;;
13171;SDS011;6651;53.200;10.432;2024-02-23T03:33:06;0.10;;;0.10;;
13171;SDS011;6651;53.200;10.432;2024-02-23T03:35:32;0.30;;;0.30;;
13171;SDS011;6651;53.200;10.432;2024-02-23T03:37:57;0.30;;;0.30;;
13171;SDS011;6651;53.200;10.432;2024-02-23T03:40:24;0.40;;;0.15;;
13171;SDS011;6651;53.200;10.432;2024-02-23T03:42:50;0.10;;;0.10;;
13171;SDS011;6651;53.200;10.432;2024-02-23T03:45:16;0.10;;;0.10;;
13171;SDS011;6651;53.200;10.432;2024-02-23T03:47:42;0.20;;;0.20;;
13171;SDS011;6651;53.200;10.432;2024-02-23T03:50:09;0.08;;;0.08;;
13171;SDS011;6651;53.200;10.432;2024-02-23T03:52:35;0.35;;;0.35;;
13171;SDS011;6651;53.200;10.432;2024-02-23T03:55:01;0.13;;;0.13;;
13171;SDS011;6651;53.200;10.432;2024-02-23T03:57:28;0.10;;;0.10;;
13171;SDS011;6651;53.200;10.432;2024-02-23T03:59:54;0.22;;;0.20;;
13171;SDS011;6651;53.200;10.432;2024-02-23T04:02:21;0.20;;;0.20;;
13171;SDS011;6651;53.200;10.432;2024-02-23T04:04:47;0.20;;;0.20;;
13171;SDS011;6651;53.200;10.432;2024-02-23T04:07:13;0.80;;;0.32;;
13171;SDS011;6651;53.200;10.432;2024-02-23T04:09:40;0.50;;;0.50;;
13171;SDS011;6651;53.200;10.432;2024-02-23T04:12:06;0.30;;;0.30;;
13171;SDS011;6651;53.200;10.432;2024-02-23T04:14:35;0.82;;;0.70;;
13171;SDS011;6651;53.200;10.432;2024-02-23T04:17:04;0.55;;;0.55;;
13171;SDS011;6651;53.200;10.432;2024-02-23T04:19:30;1.23;;;0.52;;
13171;SDS011;6651;53.200;10.432;2024-02-23T04:21:56;0.70;;;0.70;;
13171;SDS011;6651;53.200;10.432;2024-02-23T04:24:22;0.80;;;0.80;;
13171;SDS011;6651;53.200;10.432;2024-02-23T04:26:48;0.52;;;0.52;;
13171;SDS011;6651;53.200;10.432;2024-02-23T04:29:14;1.05;;;0.88;;
13171;SDS011;6651;53.200;10.432;2024-02-23T04:31:40;1.02;;;1.02;;
13171;SDS011;6651;53.200;10.432;2024-02-23T04:34:06;0.77;;;0.77;;
13171;SDS011;6651;53.200;10.432;2024-02-23T04:36:32;1.65;;;0.85;;
13171;SDS011;6651;53.200;10.432;2024-02-23T04:38:58;1.58;;;1.10;;
13171;SDS011;6651;53.200;10.432;2024-02-23T04:41:24;1.38;;;1.10;;
13171;SDS011;6651;53.200;10.432;2024-02-23T04:43:50;2.40;;;1.20;;
13171;SDS011;6651;53.200;10.432;2024-02-23T04:46:17;2.58;;;1.17;;
13171;SDS011;6651;53.200;10.432;2024-02-23T04:48:43;1.30;;;1.20;;
13171;SDS011;6651;53.200;10.432;2024-02-23T04:51:09;1.90;;;1.25;;
13171;SDS011;6651;53.200;10.432;2024-02-23T04:53:38;2.38;;;1.20;;
13171;SDS011;6651;53.200;10.432;2024-02-23T04:56:04;2.45;;;1.20;;
13171;SDS011;6651;53.200;10.432;2024-02-23T04:58:30;1.83;;;1.30;;
13171;SDS011;6651;53.200;10.432;2024-02-23T05:00:56;2.17;;;1.60;;
13171;SDS011;6651;53.200;10.432;2024-02-23T05:03:23;2.53;;;1.40;;
13171;SDS011;6651;53.200;10.432;2024-02-23T05:05:49;3.38;;;1.65;;
13171;SDS011;6651;53.200;10.432;2024-02-23T05:08:18;2.35;;;1.42;;
13171;SDS011;6651;53.200;10.432;2024-02-23T05:10:45;2.10;;;1.30;;
13171;SDS011;6651;53.200;10.432;2024-02-23T05:13:12;3.15;;;1.50;;
13171;SDS011;6651;53.200;10.432;2024-02-23T05:15:38;3.92;;;1.95;;
13171;SDS011;6651;53.200;10.432;2024-02-23T05:18:04;4.57;;;1.55;;
13171;SDS011;6651;53.200;10.432;2024-02-23T05:20:30;2.28;;;1.60;;
13171;SDS011;6651;53.200;10.432;2024-02-23T05:22:56;3.53;;;1.73;;
13171;SDS011;6651;53.200;10.432;2024-02-23T05:25:22;2.30;;;1.25;;
13171;SDS011;6651;53.200;10.432;2024-02-23T05:27:50;3.22;;;1.50;;
13171;SDS011;6651;53.200;10.432;2024-02-23T05:30:16;2.45;;;1.50;;
13171;SDS011;6651;53.200;10.432;2024-02-23T05:32:42;2.10;;;1.60;;
13171;SDS011;6651;53.200;10.432;2024-02-23T05:35:08;2.15;;;1.63;;
13171;SDS011;6651;53.200;10.432;2024-02-23T05:37:37;3.55;;;1.55;;
13171;SDS011;6651;53.200;10.432;2024-02-23T05:40:03;2.92;;;1.60;;
13171;SDS011;6651;53.200;10.432;2024-02-23T05:42:32;3.47;;;1.70;;
13171;SDS011;6651;53.200;10.432;2024-02-23T05:44:58;2.63;;;1.60;;
13171;SDS011;6651;53.200;10.432;2024-02-23T05:47:24;2.47;;;1.70;;
13171;SDS011;6651;53.200;10.432;2024-02-23T05:49:50;4.63;;;1.80;;
13171;SDS011;6651;53.200;10.432;2024-02-23T05:52:16;3.13;;;1.80;;
13171;SDS011;6651;53.200;10.432;2024-02-23T05:54:42;2.20;;;1.58;;
13171;SDS011;6651;53.200;10.432;2024-02-23T05:57:08;4.13;;;2.30;;
13171;SDS011;6651;53.200;10.432;2024-02-23T05:59:34;2.80;;;2.00;;
13171;SDS011;6651;53.200;10.432;2024-02-23T06:02:00;4.50;;;2.03;;
13171;SDS011;6651;53.200;10.432;2024-02-23T06:04:26;2.60;;;1.85;;
13171;SDS011;6651;53.200;10.432;2024-02-23T06:06:52;3.50;;;1.80;;
13171;SDS011;6651;53.200;10.432;2024-02-23T06:09:18;4.22;;;1.92;;
13171;SDS011;6651;53.200;10.432;2024-02-23T06:11:44;2.58;;;1.63;;
13171;SDS011;6651;53.200;10.432;2024-02-23T06:14:10;3.22;;;2.03;;
13171;SDS011;6651;53.200;10.432;2024-02-23T06:16:36;3.78;;;2.00;;
13171;SDS011;6651;53.200;10.432;2024-02-23T06:19:02;3.60;;;2.13;;
13171;SDS011;6651;53.200;10.432;2024-02-23T06:21:29;3.08;;;1.90;;
13171;SDS011;6651;53.200;10.432;2024-02-23T06:23:55;3.15;;;1.90;;
13171;SDS011;6651;53.200;10.432;2024-02-23T06:26:21;2.80;;;1.83;;
13171;SDS011;6651;53.200;10.432;2024-02-23T06:28:47;3.33;;;1.90;;
13171;SDS011;6651;53.200;10.432;2024-02-23T06:31:13;7.50;;;2.25;;
13171;SDS011;6651;53.200;10.432;2024-02-23T06:33:40;4.47;;;2.13;;
13171;SDS011;6651;53.200;10.432;2024-02-23T06:36:06;3.25;;;1.90;;
13171;SDS011;6651;53.200;10.432;2024-02-23T06:38:32;4.85;;;1.90;;
13171;SDS011;6651;53.200;10.432;2024-02-23T06:40:58;4.82;;;2.00;;
13171;SDS011;6651;53.200;10.432;2024-02-23T06:43:24;6.50;;;2.40;;
13171;SDS011;6651;53.200;10.432;2024-02-23T06:45:50;4.40;;;2.08;;
13171;SDS011;6651;53.200;10.432;2024-02-23T06:48:16;5.65;;;2.00;;
13171;SDS011;6651;53.200;10.432;2024-02-23T06:50:42;4.00;;;2.00;;
13171;SDS011;6651;53.200;10.432;2024-02-23T06:53:08;2.60;;;1.75;;
13171;SDS011;6651;53.200;10.432;2024-02-23T06:55:34;4.25;;;1.90;;
13171;SDS011;6651;53.200;10.432;2024-02-23T06:58:01;4.68;;;1.77;;
13171;SDS011;6651;53.200;10.432;2024-02-23T07:00:27;5.03;;;1.90;;
13171;SDS011;6651;53.200;10.432;2024-02-23T07:02:53;4.13;;;1.70;;
13171;SDS011;6651;53.200;10.432;2024-02-23T07:05:19;3.70;;;1.70;;
13171;SDS011;6651;53.200;10.432;2024-02-23T07:07:45;5.35;;;1.90;;
13171;SDS011;6651;53.200;10.432;2024-02-23T07:10:11;5.03;;;1.98;;
13171;SDS011;6651;53.200;10.432;2024-02-23T07:12:37;4.80;;;1.95;;
13171;SDS011;6651;53.200;10.432;2024-02-23T07:15:03;5.82;;;1.90;;
13171;SDS011;6651;53.200;10.432;2024-02-23T07:17:29;4.65;;;1.67;;
13171;SDS011;6651;53.200;10.432;2024-02-23T07:19:55;3.15;;;1.50;;
13171;SDS011;6651;53.200;10.432;2024-02-23T07:22:29;2.72;;;1.70;;
13171;SDS011;6651;53.200;10.432;2024-02-23T07:24:55;3.30;;;1.70;;
13171;SDS011;6651;53.200;10.432;2024-02-23T07:27:21;3.47;;;1.70;;
13171;SDS011;6651;53.200;10.432;2024-02-23T07:29:47;4.50;;;1.67;;
13171;SDS011;6651;53.200;10.432;2024-02-23T07:32:14;5.03;;;1.63;;
13171;SDS011;6651;53.200;10.432;2024-02-23T07:34:40;3.70;;;1.65;;
13171;SDS011;6651;53.200;10.432;2024-02-23T07:37:06;5.05;;;1.60;;
13171;SDS011;6651;53.200;10.432;2024-02-23T07:39:32;5.68;;;2.25;;
13171;SDS011;6651;53.200;10.432;2024-02-23T07:41:58;3.92;;;1.70;;
13171;SDS011;6651;53.200;10.432;2024-02-23T07:44:25;3.45;;;1.63;;
13171;SDS011;6651;53.200;10.432;2024-02-23T07:46:51;3.88;;;1.58;;
13171;SDS011;6651;53.200;10.432;2024-02-23T07:49:19;4.18;;;1.75;;
13171;SDS011;6651;53.200;10.432;2024-02-23T07:51:45;4.55;;;1.90;;
13171;SDS011;6651;53.200;10.432;2024-02-23T07:54:11;2.58;;;1.63;;
13171;SDS011;6651;53.200;10.432;2024-02-23T07:56:37;4.00;;;1.50;;
13171;SDS011;6651;53.200;10.432;2024-02-23T07:59:03;4.43;;;1.90;;
13171;SDS011;6651;53.200;10.432;2024-02-23T08:01:29;6.43;;;2.00;;
13171;SDS011;6651;53.200;10.432;2024-02-23T08:03:55;3.15;;;1.17;;
13171;SDS011;6651;53.200;10.432;2024-02-23T08:06:21;2.70;;;1.60;;
13171;SDS011;6651;53.200;10.432;2024-02-23T08:08:48;4.18;;;1.60;;
13171;SDS011;6651;53.200;10.432;2024-02-23T08:11:14;6.03;;;1.70;;
13171;SDS011;6651;53.200;10.432;2024-02-23T08:13:40;4.50;;;1.70;;
13171;SDS011;6651;53.200;10.432;2024-02-23T08:16:06;4.43;;;1.50;;
13171;SDS011;6651;53.200;10.432;2024-02-23T08:18:32;5.03;;;1.88;;
13171;SDS011;6651;53.200;10.432;2024-02-23T08:20:58;4.72;;;1.60;;
13171;SDS011;6651;53.200;10.432;2024-02-23T08:23:27;3.15;;;1.40;;
13171;SDS011;6651;53.200;10.432;2024-02-23T08:25:53;3.92;;;1.67;;
13171;SDS011;6651;53.200;10.432;2024-02-23T08:28:22;6.22;;;1.58;;
13171;SDS011;6651;53.200;10.432;2024-02-23T08:30:48;5.25;;;1.65;;
13171;SDS011;6651;53.200;10.432;2024-02-23T08:33:14;6.35;;;1.85;;
13171;SDS011;6651;53.200;10.432;2024-02-23T08:35:40;4.25;;;1.67;;
13171;SDS011;6651;53.200;10.432;2024-02-23T08:38:06;2.63;;;1.50;;
13171;SDS011;6651;53.200;10.432;2024-02-23T08:40:32;4.78;;;1.70;;
13171;SDS011;6651;53.200;10.432;2024-02-23T08:42:58;3.83;;;1.45;;
13171;SDS011;6651;53.200;10.432;2024-02-23T08:45:24;4.35;;;1.70;;
13171;SDS011;6651;53.200;10.432;2024-02-23T08:47:50;7.10;;;2.03;;
13171;SDS011;6651;53.200;10.432;2024-02-23T08:50:16;5.45;;;1.50;;
13171;SDS011;6651;53.200;10.432;2024-02-23T08:52:42;6.47;;;1.88;;
13171;SDS011;6651;53.200;10.432;2024-02-23T08:55:08;4.35;;;1.73;;
13171;SDS011;6651;53.200;10.432;2024-02-23T08:57:34;4.18;;;1.90;;
13171;SDS011;6651;53.200;10.432;2024-02-23T09:00:00;2.83;;;1.70;;
13171;SDS011;6651;53.200;10.432;2024-02-23T09:02:26;4.90;;;1.83;;
13171;SDS011;6651;53.200;10.432;2024-02-23T09:04:52;3.80;;;1.60;;
13171;SDS011;6651;53.200;10.432;2024-02-23T09:07:18;5.32;;;1.83;;
13171;SDS011;6651;53.200;10.432;2024-02-23T09:09:46;4.43;;;1.85;;
13171;SDS011;6651;53.200;10.432;2024-02-23T09:12:13;3.42;;;1.73;;
13171;SDS011;6651;53.200;10.432;2024-02-23T09:14:41;3.17;;;1.50;;
13171;SDS011;6651;53.200;10.432;2024-02-23T09:17:08;5.95;;;2.20;;
13171;SDS011;6651;53.200;10.432;2024-02-23T09:19:34;5.03;;;1.60;;
13171;SDS011;6651;53.200;10.432;2024-02-23T09:22:01;4.63;;;1.60;;
13171;SDS011;6651;53.200;10.432;2024-02-23T09:24:28;4.40;;;1.80;;
13171;SDS011;6651;53.200;10.432;2024-02-23T09:26:54;5.22;;;1.60;;
13171;SDS011;6651;53.200;10.432;2024-02-23T09:29:20;4.50;;;1.75;;
13171;SDS011;6651;53.200;10.432;2024-02-23T09:31:46;5.82;;;2.08;;
13171;SDS011;6651;53.200;10.432;2024-02-23T09:34:12;4.28;;;1.65;;
13171;SDS011;6651;53.200;10.432;2024-02-23T09:36:38;4.43;;;1.60;;
13171;SDS011;6651;53.200;10.432;2024-02-23T09:39:04;3.58;;;1.55;;
13171;SDS011;6651;53.200;10.432;2024-02-23T09:41:30;6.60;;;1.88;;
13171;SDS011;6651;53.200;10.432;2024-02-23T09:43:57;3.70;;;1.70;;
13171;SDS011;6651;53.200;10.432;2024-02-23T09:46:24;5.40;;;1.45;;
13171;SDS011;6651;53.200;10.432;2024-02-23T09:48:51;3.45;;;1.60;;
13171;SDS011;6651;53.200;10.432;2024-02-23T09:51:17;4.13;;;1.60;;
13171;SDS011;6651;53.200;10.432;2024-02-23T09:53:43;5.10;;;1.58;;
13171;SDS011;6651;53.200;10.432;2024-02-23T09:56:09;4.78;;;1.50;;
13171;SDS011;6651;53.200;10.432;2024-02-23T09:58:36;6.10;;;1.65;;
13171;SDS011;6651;53.200;10.432;2024-02-23T10:01:02;4.45;;;1.70;;
13171;SDS011;6651;53.200;10.432;2024-02-23T10:03:29;4.93;;;1.83;;
13171;SDS011;6651;53.200;10.432;2024-02-23T10:05:56;5.28;;;1.67;;
13171;SDS011;6651;53.200;10.432;2024-02-23T10:08:22;2.75;;;1.77;;
13171;SDS011;6651;53.200;10.432;2024-02-23T10:10:48;4.38;;;1.63;;
13171;SDS011;6651;53.200;10.432;2024-02-23T10:13:19;6.88;;;1.85;;
13171;SDS011;6651;53.200;10.432;2024-02-23T10:15:49;3.47;;;1.48;;
13171;SDS011;6651;53.200;10.432;2024-02-23T10:18:15;5.68;;;1.90;;
13171;SDS011;6651;53.200;10.432;2024-02-23T10:20:41;5.95;;;2.03;;
13171;SDS011;6651;53.200;10.432;2024-02-23T10:23:08;5.53;;;1.90;;
13171;SDS011;6651;53.200;10.432;2024-02-23T10:25:35;5.40;;;2.10;;
13171;SDS011;6651;53.200;10.432;2024-02-23T10:28:01;5.30;;;1.75;;
13171;SDS011;6651;53.200;10.432;2024-02-23T10:30:27;4.22;;;1.67;;
13171;SDS011;6651;53.200;10.432;2024-02-23T10:32:55;5.18;;;1.83;;
13171;SDS011;6651;53.200;10.432;2024-02-23T10:35:22;5.20;;;1.55;;
13171;SDS011;6651;53.200;10.432;2024-02-23T10:37:48;4.88;;;1.33;;
13171;SDS011;6651;53.200;10.432;2024-02-23T10:40:17;5.05;;;1.50;;
13171;SDS011;6651;53.200;10.432;2024-02-23T10:42:44;5.65;;;1.80;;
13171;SDS011;6651;53.200;10.432;2024-02-23T10:45:16;4.15;;;1.65;;
13171;SDS011;6651;53.200;10.432;2024-02-23T10:47:42;2.78;;;1.30;;
13171;SDS011;6651;53.200;10.432;2024-02-23T10:50:09;3.90;;;1.50;;
13171;SDS011;6651;53.200;10.432;2024-02-23T10:52:39;4.15;;;1.60;;
13171;SDS011;6651;53.200;10.432;2024-02-23T10:55:06;3.25;;;1.48;;
13171;SDS011;6651;53.200;10.432;2024-02-23T10:57:37;4.38;;;1.40;;
13171;SDS011;6651;53.200;10.432;2024-02-23T11:00:04;3.90;;;1.25;;
13171;SDS011;6651;53.200;10.432;2024-02-23T11:02:38;4.75;;;1.45;;
13171;SDS011;6651;53.200;10.432;2024-02-23T11:05:06;4.72;;;1.38;;
13171;SDS011;6651;53.200;10.432;2024-02-23T11:07:37;5.57;;;1.50;;
13171;SDS011;6651;53.200;10.432;2024-02-23T11:10:04;4.00;;;1.45;;
13171;SDS011;6651;53.200;10.432;2024-02-23T11:12:30;4.13;;;1.48;;
13171;SDS011;6651;53.200;10.432;2024-02-23T11:14:57;4.15;;;1.42;;
13171;SDS011;6651;53.200;10.432;2024-02-23T11:17:26;5.97;;;1.60;;
13171;SDS011;6651;53.200;10.432;2024-02-23T11:19:54;4.13;;;1.40;;
13171;SDS011;6651;53.200;10.432;2024-02-23T11:22:25;3.85;;;1.42;;
13171;SDS011;6651;53.200;10.432;2024-02-23T11:24:51;3.58;;;1.40;;
13171;SDS011;6651;53.200;10.432;2024-02-23T11:27:17;5.07;;;1.40;;
13171;SDS011;6651;53.200;10.432;2024-02-23T11:29:47;2.92;;;1.20;;
13171;SDS011;6651;53.200;10.432;2024-02-23T11:32:16;3.90;;;1.25;;
13171;SDS011;6651;53.200;10.432;2024-02-23T11:34:55;2.78;;;1.23;;
13171;SDS011;6651;53.200;10.432;2024-02-23T11:37:21;3.63;;;1.30;;
13171;SDS011;6651;53.200;10.432;2024-02-23T11:39:48;3.35;;;1.30;;
13171;SDS011;6651;53.200;10.432;2024-02-23T11:42:14;3.58;;;1.20;;
13171;SDS011;6651;53.200;10.432;2024-02-23T11:44:40;3.28;;;1.10;;
13171;SDS011;6651;53.200;10.432;2024-02-23T11:47:07;4.00;;;1.40;;
13171;SDS011;6651;53.200;10.432;2024-02-23T11:49:33;2.22;;;1.17;;
13171;SDS011;6651;53.200;10.432;2024-02-23T11:51:59;3.33;;;1.45;;
13171;SDS011;6651;53.200;10.432;2024-02-23T11:54:25;5.15;;;1.20;;
13171;SDS011;6651;53.200;10.432;2024-02-23T11:56:51;2.97;;;1.30;;
13171;SDS011;6651;53.200;10.432;2024-02-23T11:59:21;2.20;;;1.10;;
13171;SDS011;6651;53.200;10.432;2024-02-23T12:01:48;5.13;;;1.17;;
13171;SDS011;6651;53.200;10.432;2024-02-23T12:04:14;2.60;;;1.25;;
13171;SDS011;6651;53.200;10.432;2024-02-23T12:06:41;4.07;;;1.13;;
13171;SDS011;6651;53.200;10.432;2024-02-23T12:09:07;2.42;;;1.10;;
13171;SDS011;6651;53.200;10.432;2024-02-23T12:11:34;2.95;;;1.38;;
13171;SDS011;6651;53.200;10.432;2024-02-23T12:14:00;2.58;;;1.15;;
13171;SDS011;6651;53.200;10.432;2024-02-23T12:16:27;2.15;;;1.10;;
13171;SDS011;6651;53.200;10.432;2024-02-23T12:18:54;3.30;;;1.10;;
13171;SDS011;6651;53.200;10.432;2024-02-23T12:21:20;1.88;;;0.90;;
13171;SDS011;6651;53.200;10.432;2024-02-23T12:23:48;3.45;;;1.13;;
13171;SDS011;6651;53.200;10.432;2024-02-23T12:26:14;3.13;;;0.98;;
13171;SDS011;6651;53.200;10.432;2024-02-23T12:28:40;4.18;;;1.13;;
13171;SDS011;6651;53.200;10.432;2024-02-23T12:31:06;2.15;;;0.95;;
13171;SDS011;6651;53.200;10.432;2024-02-23T12:33:33;1.42;;;0.93;;
13171;SDS011;6651;53.200;10.432;2024-02-23T12:36:00;2.58;;;1.08;;
13171;SDS011;6651;53.200;10.432;2024-02-23T12:38:26;1.90;;;1.13;;
13171;SDS011;6651;53.200;10.432;2024-02-23T12:40:52;3.35;;;1.02;;
13171;SDS011;6651;53.200;10.432;2024-02-23T12:43:18;1.42;;;1.00;;
13171;SDS011;6651;53.200;10.432;2024-02-23T12:45:49;2.80;;;1.40;;
13171;SDS011;6651;53.200;10.432;2024-02-23T12:48:15;1.50;;;0.90;;
13171;SDS011;6651;53.200;10.432;2024-02-23T12:50:41;2.03;;;0.70;;
13171;SDS011;6651;53.200;10.432;2024-02-23T12:53:08;4.18;;;1.10;;
13171;SDS011;6651;53.200;10.432;2024-02-23T12:55:34;2.83;;;1.15;;
13171;SDS011;6651;53.200;10.432;2024-02-23T12:58:01;4.20;;;0.90;;
13171;SDS011;6651;53.200;10.432;2024-02-23T13:00:27;3.17;;;0.98;;
13171;SDS011;6651;53.200;10.432;2024-02-23T13:02:53;1.33;;;0.75;;
13171;SDS011;6651;53.200;10.432;2024-02-23T13:05:19;2.67;;;1.05;;
13171;SDS011;6651;53.200;10.432;2024-02-23T13:07:46;2.53;;;0.93;;
13171;SDS011;6651;53.200;10.432;2024-02-23T13:10:13;2.35;;;1.30;;
13171;SDS011;6651;53.200;10.432;2024-02-23T13:12:39;2.03;;;0.98;;
13171;SDS011;6651;53.200;10.432;2024-02-23T13:15:06;2.28;;;1.17;;
13171;SDS011;6651;53.200;10.432;2024-02-23T13:17:32;2.17;;;1.27;;
13171;SDS011;6651;53.200;10.432;2024-02-23T13:19:58;2.65;;;1.00;;
13171;SDS011;6651;53.200;10.432;2024-02-23T13:22:24;2.25;;;0.85;;
13171;SDS011;6651;53.200;10.432;2024-02-23T13:24:50;1.30;;;0.80;;
13171;SDS011;6651;53.200;10.432;2024-02-23T13:27:16;2.40;;;1.13;;
13171;SDS011;6651;53.200;10.432;2024-02-23T13:29:42;2.17;;;1.02;;
13171;SDS011;6651;53.200;10.432;2024-02-23T13:32:08;2.17;;;1.30;;
13171;SDS011;6651;53.200;10.432;2024-02-23T13:34:34;2.65;;;1.33;;
13171;SDS011;6651;53.200;10.432;2024-02-23T13:37:00;2.85;;;1.20;;
13171;SDS011;6651;53.200;10.432;2024-02-23T13:39:26;3.88;;;1.08;;
13171;SDS011;6651;53.200;10.432;2024-02-23T13:41:52;3.20;;;1.00;;
13171;SDS011;6651;53.200;10.432;2024-02-23T13:44:18;2.83;;;1.20;;
13171;SDS011;6651;53.200;10.432;2024-02-23T13:46:44;5.30;;;1.30;;
13171;SDS011;6651;53.200;10.432;2024-02-23T13:49:10;3.67;;;1.67;;
13171;SDS011;6651;53.200;10.432;2024-02-23T13:51:37;2.95;;;1.42;;
13171;SDS011;6651;53.200;10.432;2024-02-23T13:54:03;3.88;;;1.48;;
13171;SDS011;6651;53.200;10.432;2024-02-23T13:56:30;2.90;;;1.20;;
13171;SDS011;6651;53.200;10.432;2024-02-23T13:58:56;1.45;;;0.82;;
13171;SDS011;6651;53.200;10.432;2024-02-23T14:01:22;3.80;;;1.50;;
13171;SDS011;6651;53.200;10.432;2024-02-23T14:03:48;4.53;;;1.35;;
13171;SDS011;6651;53.200;10.432;2024-02-23T14:06:14;3.70;;;1.60;;
13171;SDS011;6651;53.200;10.432;2024-02-23T14:08:40;3.13;;;1.33;;
13171;SDS011;6651;53.200;10.432;2024-02-23T14:11:07;3.33;;;1.20;;
13171;SDS011;6651;53.200;10.432;2024-02-23T14:13:33;2.38;;;1.10;;
13171;SDS011;6651;53.200;10.432;2024-02-23T14:15:59;3.80;;;1.27;;
13171;SDS011;6651;53.200;10.432;2024-02-23T14:18:26;3.53;;;1.35;;
13171;SDS011;6651;53.200;10.432;2024-02-23T14:20:52;3.17;;;1.65;;
13171;SDS011;6651;53.200;10.432;2024-02-23T14:23:18;3.08;;;1.13;;
13171;SDS011;6651;53.200;10.432;2024-02-23T14:25:44;2.25;;;1.00;;
13171;SDS011;6651;53.200;10.432;2024-02-23T14:28:10;1.73;;;0.98;;
13171;SDS011;6651;53.200;10.432;2024-02-23T14:30:38;1.98;;;1.45;;
13171;SDS011;6651;53.200;10.432;2024-02-23T14:33:05;5.28;;;1.02;;
13171;SDS011;6651;53.200;10.432;2024-02-23T14:35:31;2.75;;;1.00;;
13171;SDS011;6651;53.200;10.432;2024-02-23T14:37:57;4.30;;;1.25;;
13171;SDS011;6651;53.200;10.432;2024-02-23T14:40:23;2.50;;;1.35;;
13171;SDS011;6651;53.200;10.432;2024-02-23T14:42:49;3.72;;;1.35;;